sensor_id;sensor_type;location;lat;lon;timestamp;temperature;humidity
35325;DHT22;35135;47.510;19.036;2023-01-28T00:01:48;20.40;53.90
35325;DHT22;35135;47.510;19.036;2023-01-28T00:04:14;20.40;53.80
35325;DHT22;35135;47.510;19.036;2023-01-28T00:06:40;20.40;53.80
35325;DHT22;35135;47.510;19.036;2023-01-28T00:09:06;20.40;53.80
35325;DHT22;35135;47.510;19.036;2023-01-28T00:11:31;20.40;53.80
35325;DHT22;35135;47.510;19.036;2023-01-28T00:13:58;20.40;53.70
35325;DHT22;35135;47.510;19.036;2023-01-28T00:16:24;20.40;53.70
35325;DHT22;35135;47.510;19.036;2023-01-28T00:18:52;20.40;53.70
35325;DHT22;35135;47.510;19.036;2023-01-28T00:21:17;20.40;53.70
35325;DHT22;35135;47.510;19.036;2023-01-28T00:23:48;20.40;53.70
35325;DHT22;35135;47.510;19.036;2023-01-28T00:26:15;20.30;53.60
35325;DHT22;35135;47.510;19.036;2023-01-28T00:28:41;20.30;53.70
35325;DHT22;35135;47.510;19.036;2023-01-28T00:31:08;20.30;53.60
35325;DHT22;35135;47.510;19.036;2023-01-28T00:33:35;20.30;53.70
35325;DHT22;35135;47.510;19.036;2023-01-28T00:36:04;20.30;53.60
35325;DHT22;35135;47.510;19.036;2023-01-28T00:38:31;20.30;53.70
35325;DHT22;35135;47.510;19.036;2023-01-28T00:41:09;20.30;53.60
35325;DHT22;35135;47.510;19.036;2023-01-28T00:43:36;20.30;53.60
35325;DHT22;35135;47.510;19.036;2023-01-28T00:46:05;20.30;53.70
35325;DHT22;35135;47.510;19.036;2023-01-28T00:48:32;20.30;53.60
35325;DHT22;35135;47.510;19.036;2023-01-28T00:50:58;20.30;53.60
35325;DHT22;35135;47.510;19.036;2023-01-28T00:53:24;20.30;53.60
35325;DHT22;35135;47.510;19.036;2023-01-28T00:55:50;20.30;53.60
35325;DHT22;35135;47.510;19.036;2023-01-28T00:58:16;20.30;53.60
35325;DHT22;35135;47.510;19.036;2023-01-28T01:00:41;20.30;53.60
35325;DHT22;35135;47.510;19.036;2023-01-28T01:03:07;20.30;53.60
35325;DHT22;35135;47.510;19.036;2023-01-28T01:05:32;20.30;53.60
35325;DHT22;35135;47.510;19.036;2023-01-28T01:07:59;20.30;53.60
35325;DHT22;35135;47.510;19.036;2023-01-28T01:10:24;20.30;53.60
35325;DHT22;35135;47.510;19.036;2023-01-28T01:12:50;20.30;53.50
35325;DHT22;35135;47.510;19.036;2023-01-28T01:15:17;20.30;53.60
35325;DHT22;35135;47.510;19.036;2023-01-28T01:17:45;20.30;53.60
35325;DHT22;35135;47.510;19.036;2023-01-28T01:20:14;20.20;53.70
35325;DHT22;35135;47.510;19.036;2023-01-28T01:22:40;20.20;53.50
35325;DHT22;35135;47.510;19.036;2023-01-28T01:25:06;20.20;53.50
35325;DHT22;35135;47.510;19.036;2023-01-28T01:27:32;20.20;53.50
35325;DHT22;35135;47.510;19.036;2023-01-28T01:29:58;20.20;53.50
35325;DHT22;35135;47.510;19.036;2023-01-28T01:32:27;20.20;53.50
35325;DHT22;35135;47.510;19.036;2023-01-28T01:34:53;20.20;53.50
35325;DHT22;35135;47.510;19.036;2023-01-28T01:37:19;20.20;53.50
35325;DHT22;35135;47.510;19.036;2023-01-28T01:39:45;20.20;53.40
35325;DHT22;35135;47.510;19.036;2023-01-28T01:42:12;20.20;53.50
35325;DHT22;35135;47.510;19.036;2023-01-28T01:44:57;20.20;53.50
35325;DHT22;35135;47.510;19.036;2023-01-28T01:47:37;20.20;53.50
35325;DHT22;35135;47.510;19.036;2023-01-28T01:50:15;20.20;53.50
35325;DHT22;35135;47.510;19.036;2023-01-28T01:52:44;20.20;53.50
35325;DHT22;35135;47.510;19.036;2023-01-28T01:55:13;20.20;53.50
35325;DHT22;35135;47.510;19.036;2023-01-28T01:57:40;20.20;53.50
35325;DHT22;35135;47.510;19.036;2023-01-28T02:00:06;20.20;53.40
35325;DHT22;35135;47.510;19.036;2023-01-28T02:02:41;20.20;53.40
35325;DHT22;35135;47.510;19.036;2023-01-28T02:05:09;20.20;53.40
35325;DHT22;35135;47.510;19.036;2023-01-28T02:07:35;20.20;53.40
35325;DHT22;35135;47.510;19.036;2023-01-28T02:10:02;20.20;53.40
35325;DHT22;35135;47.510;19.036;2023-01-28T02:12:33;20.20;53.40
35325;DHT22;35135;47.510;19.036;2023-01-28T02:15:11;20.20;53.40
35325;DHT22;35135;47.510;19.036;2023-01-28T02:17:39;20.10;53.40
35325;DHT22;35135;47.510;19.036;2023-01-28T02:20:11;20.10;53.40
35325;DHT22;35135;47.510;19.036;2023-01-28T02:36:16;20.10;53.30
35325;DHT22;35135;47.510;19.036;2023-01-28T02:38:46;20.10;53.30
35325;DHT22;35135;47.510;19.036;2023-01-28T02:41:30;20.10;53.30
35325;DHT22;35135;47.510;19.036;2023-01-28T02:43:57;20.10;53.30
35325;DHT22;35135;47.510;19.036;2023-01-28T02:49:41;20.10;53.30
35325;DHT22;35135;47.510;19.036;2023-01-28T03:00:41;20.10;53.30
35325;DHT22;35135;47.510;19.036;2023-01-28T03:03:27;20.00;53.10
35325;DHT22;35135;47.510;19.036;2023-01-28T03:06:08;20.00;53.20
35325;DHT22;35135;47.510;19.036;2023-01-28T03:08:46;20.00;53.20
35325;DHT22;35135;47.510;19.036;2023-01-28T03:11:35;20.10;53.20
35325;DHT22;35135;47.510;19.036;2023-01-28T03:14:23;20.10;53.30
35325;DHT22;35135;47.510;19.036;2023-01-28T03:17:15;20.10;53.30
35325;DHT22;35135;47.510;19.036;2023-01-28T03:20:00;20.10;53.20
35325;DHT22;35135;47.510;19.036;2023-01-28T03:22:45;20.00;53.20
35325;DHT22;35135;47.510;19.036;2023-01-28T03:25:34;20.10;53.20
35325;DHT22;35135;47.510;19.036;2023-01-28T03:28:20;20.00;53.20
35325;DHT22;35135;47.510;19.036;2023-01-28T03:31:14;20.00;53.20
35325;DHT22;35135;47.510;19.036;2023-01-28T03:34:01;20.00;53.10
35325;DHT22;35135;47.510;19.036;2023-01-28T03:36:47;20.00;53.20
35325;DHT22;35135;47.510;19.036;2023-01-28T03:39:23;20.00;53.10
35325;DHT22;35135;47.510;19.036;2023-01-28T03:42:04;20.00;53.10
35325;DHT22;35135;47.510;19.036;2023-01-28T03:44:30;20.00;53.00
35325;DHT22;35135;47.510;19.036;2023-01-28T03:47:15;20.00;53.10
35325;DHT22;35135;47.510;19.036;2023-01-28T03:49:46;20.00;53.10
35325;DHT22;35135;47.510;19.036;2023-01-28T03:52:16;20.00;53.10
35325;DHT22;35135;47.510;19.036;2023-01-28T03:54:44;20.00;53.00
35325;DHT22;35135;47.510;19.036;2023-01-28T03:57:12;20.00;53.00
35325;DHT22;35135;47.510;19.036;2023-01-28T03:59:37;20.00;53.00
35325;DHT22;35135;47.510;19.036;2023-01-28T04:02:03;20.00;52.90
35325;DHT22;35135;47.510;19.036;2023-01-28T04:04:30;20.00;53.00
35325;DHT22;35135;47.510;19.036;2023-01-28T04:06:57;20.00;52.90
35325;DHT22;35135;47.510;19.036;2023-01-28T04:09:23;20.00;52.90
35325;DHT22;35135;47.510;19.036;2023-01-28T04:11:49;20.00;52.90
35325;DHT22;35135;47.510;19.036;2023-01-28T04:14:16;20.00;52.90
35325;DHT22;35135;47.510;19.036;2023-01-28T04:16:42;20.00;52.90
35325;DHT22;35135;47.510;19.036;2023-01-28T04:19:08;19.90;52.80
35325;DHT22;35135;47.510;19.036;2023-01-28T04:21:34;20.00;52.90
35325;DHT22;35135;47.510;19.036;2023-01-28T04:24:00;19.90;52.80
35325;DHT22;35135;47.510;19.036;2023-01-28T04:26:27;20.00;52.90
35325;DHT22;35135;47.510;19.036;2023-01-28T04:28:52;19.90;52.80
35325;DHT22;35135;47.510;19.036;2023-01-28T04:31:18;19.90;52.80
35325;DHT22;35135;47.510;19.036;2023-01-28T04:33:44;19.90;52.80
35325;DHT22;35135;47.510;19.036;2023-01-28T04:36:09;20.00;52.80
35325;DHT22;35135;47.510;19.036;2023-01-28T04:38:35;19.90;52.70
35325;DHT22;35135;47.510;19.036;2023-01-28T04:41:01;19.90;52.70
35325;DHT22;35135;47.510;19.036;2023-01-28T04:43:27;20.00;52.80
35325;DHT22;35135;47.510;19.036;2023-01-28T04:45:52;19.90;52.70
35325;DHT22;35135;47.510;19.036;2023-01-28T04:48:18;19.90;52.70
35325;DHT22;35135;47.510;19.036;2023-01-28T04:50:44;19.90;52.70
35325;DHT22;35135;47.510;19.036;2023-01-28T04:53:10;19.90;52.70
35325;DHT22;35135;47.510;19.036;2023-01-28T04:55:36;19.90;52.60
35325;DHT22;35135;47.510;19.036;2023-01-28T04:58:02;19.90;52.60
35325;DHT22;35135;47.510;19.036;2023-01-28T05:00:28;19.90;52.50
35325;DHT22;35135;47.510;19.036;2023-01-28T05:02:53;19.90;52.50
35325;DHT22;35135;47.510;19.036;2023-01-28T05:05:19;19.90;52.50
35325;DHT22;35135;47.510;19.036;2023-01-28T05:07:52;19.90;52.50
35325;DHT22;35135;47.510;19.036;2023-01-28T05:10:19;19.90;52.50
35325;DHT22;35135;47.510;19.036;2023-01-28T05:12:45;19.90;52.60
35325;DHT22;35135;47.510;19.036;2023-01-28T05:15:11;20.00;52.60
35325;DHT22;35135;47.510;19.036;2023-01-28T05:17:37;20.00;52.60
35325;DHT22;35135;47.510;19.036;2023-01-28T05:20:04;20.10;52.50
35325;DHT22;35135;47.510;19.036;2023-01-28T05:22:29;20.20;52.40
35325;DHT22;35135;47.510;19.036;2023-01-28T05:24:55;20.30;52.20
35325;DHT22;35135;47.510;19.036;2023-01-28T05:27:21;20.40;51.90
35325;DHT22;35135;47.510;19.036;2023-01-28T05:29:47;20.50;51.70
35325;DHT22;35135;47.510;19.036;2023-01-28T05:32:13;20.60;51.60
35325;DHT22;35135;47.510;19.036;2023-01-28T05:34:38;20.70;51.40
35325;DHT22;35135;47.510;19.036;2023-01-28T05:37:04;20.90;51.20
35325;DHT22;35135;47.510;19.036;2023-01-28T05:39:30;20.90;51.00
35325;DHT22;35135;47.510;19.036;2023-01-28T05:41:56;21.00;50.90
35325;DHT22;35135;47.510;19.036;2023-01-28T05:44:21;21.10;50.70
35325;DHT22;35135;47.510;19.036;2023-01-28T05:46:47;21.10;50.60
35325;DHT22;35135;47.510;19.036;2023-01-28T05:49:14;21.20;50.50
35325;DHT22;35135;47.510;19.036;2023-01-28T05:51:41;21.20;50.40
35325;DHT22;35135;47.510;19.036;2023-01-28T05:54:07;21.20;50.30
35325;DHT22;35135;47.510;19.036;2023-01-28T05:56:33;21.20;50.20
35325;DHT22;35135;47.510;19.036;2023-01-28T05:59:01;21.10;50.10
35325;DHT22;35135;47.510;19.036;2023-01-28T06:01:27;21.10;50.10
35325;DHT22;35135;47.510;19.036;2023-01-28T06:03:52;21.10;50.00
35325;DHT22;35135;47.510;19.036;2023-01-28T06:06:18;21.10;50.10
35325;DHT22;35135;47.510;19.036;2023-01-28T06:08:44;21.00;50.10
35325;DHT22;35135;47.510;19.036;2023-01-28T06:11:09;21.00;50.10
35325;DHT22;35135;47.510;19.036;2023-01-28T06:13:35;21.00;50.10
35325;DHT22;35135;47.510;19.036;2023-01-28T06:16:02;21.00;50.20
35325;DHT22;35135;47.510;19.036;2023-01-28T06:18:28;20.90;50.30
35325;DHT22;35135;47.510;19.036;2023-01-28T06:20:54;20.90;50.30
35325;DHT22;35135;47.510;19.036;2023-01-28T06:23:20;20.90;50.40
35325;DHT22;35135;47.510;19.036;2023-01-28T06:25:45;20.80;50.30
35325;DHT22;35135;47.510;19.036;2023-01-28T06:28:11;20.80;50.40
35325;DHT22;35135;47.510;19.036;2023-01-28T06:30:37;20.80;50.50
35325;DHT22;35135;47.510;19.036;2023-01-28T06:33:02;20.80;50.50
35325;DHT22;35135;47.510;19.036;2023-01-28T06:35:28;20.70;50.50
35325;DHT22;35135;47.510;19.036;2023-01-28T06:37:54;20.70;50.50
35325;DHT22;35135;47.510;19.036;2023-01-28T06:40:19;20.70;50.50
35325;DHT22;35135;47.510;19.036;2023-01-28T06:42:47;20.60;50.40
35325;DHT22;35135;47.510;19.036;2023-01-28T06:45:13;20.60;50.40
35325;DHT22;35135;47.510;19.036;2023-01-28T06:47:39;20.60;50.60
35325;DHT22;35135;47.510;19.036;2023-01-28T06:50:05;20.60;50.50
35325;DHT22;35135;47.510;19.036;2023-01-28T06:52:31;20.60;50.50
35325;DHT22;35135;47.510;19.036;2023-01-28T06:54:56;20.60;50.60
35325;DHT22;35135;47.510;19.036;2023-01-28T06:57:22;20.50;50.70
35325;DHT22;35135;47.510;19.036;2023-01-28T06:59:48;20.50;50.60
35325;DHT22;35135;47.510;19.036;2023-01-28T07:02:14;20.50;50.70
35325;DHT22;35135;47.510;19.036;2023-01-28T07:04:39;20.50;50.90
35325;DHT22;35135;47.510;19.036;2023-01-28T07:07:05;20.50;51.00
35325;DHT22;35135;47.510;19.036;2023-01-28T07:09:31;20.50;51.00
35325;DHT22;35135;47.510;19.036;2023-01-28T07:11:56;20.50;51.00
35325;DHT22;35135;47.510;19.036;2023-01-28T07:14:22;20.40;50.90
35325;DHT22;35135;47.510;19.036;2023-01-28T07:16:48;20.40;51.00
35325;DHT22;35135;47.510;19.036;2023-01-28T07:19:14;20.40;51.10
35325;DHT22;35135;47.510;19.036;2023-01-28T07:21:39;20.40;51.00
35325;DHT22;35135;47.510;19.036;2023-01-28T07:24:05;20.40;51.00
35325;DHT22;35135;47.510;19.036;2023-01-28T07:26:31;20.30;51.00
35325;DHT22;35135;47.510;19.036;2023-01-28T07:28:57;20.30;51.00
35325;DHT22;35135;47.510;19.036;2023-01-28T07:31:23;20.30;51.10
35325;DHT22;35135;47.510;19.036;2023-01-28T07:33:50;20.30;51.10
35325;DHT22;35135;47.510;19.036;2023-01-28T07:36:16;20.30;51.10
35325;DHT22;35135;47.510;19.036;2023-01-28T07:38:41;20.30;51.10
35325;DHT22;35135;47.510;19.036;2023-01-28T07:41:07;20.30;51.10
35325;DHT22;35135;47.510;19.036;2023-01-28T07:43:33;20.30;51.10
35325;DHT22;35135;47.510;19.036;2023-01-28T07:46:01;20.30;51.10
35325;DHT22;35135;47.510;19.036;2023-01-28T07:48:27;20.30;51.00
35325;DHT22;35135;47.510;19.036;2023-01-28T07:50:56;20.30;51.10
35325;DHT22;35135;47.510;19.036;2023-01-28T07:53:22;20.30;51.30
35325;DHT22;35135;47.510;19.036;2023-01-28T07:55:48;20.30;51.30
35325;DHT22;35135;47.510;19.036;2023-01-28T07:58:13;20.30;51.30
35325;DHT22;35135;47.510;19.036;2023-01-28T08:00:39;20.30;51.40
35325;DHT22;35135;47.510;19.036;2023-01-28T08:03:08;20.30;51.50
35325;DHT22;35135;47.510;19.036;2023-01-28T08:05:47;20.30;51.60
35325;DHT22;35135;47.510;19.036;2023-01-28T08:08:14;20.30;51.50
35325;DHT22;35135;47.510;19.036;2023-01-28T08:10:40;20.30;51.70
35325;DHT22;35135;47.510;19.036;2023-01-28T08:13:06;20.30;51.80
35325;DHT22;35135;47.510;19.036;2023-01-28T08:15:33;20.30;51.80
35325;DHT22;35135;47.510;19.036;2023-01-28T08:17:59;20.30;51.70
35325;DHT22;35135;47.510;19.036;2023-01-28T08:20:27;20.40;51.80
35325;DHT22;35135;47.510;19.036;2023-01-28T08:23:03;20.40;51.70
35325;DHT22;35135;47.510;19.036;2023-01-28T08:25:28;20.40;52.20
35325;DHT22;35135;47.510;19.036;2023-01-28T08:27:54;20.40;51.90
35325;DHT22;35135;47.510;19.036;2023-01-28T08:30:20;20.40;51.90
35325;DHT22;35135;47.510;19.036;2023-01-28T08:32:45;20.40;52.00
35325;DHT22;35135;47.510;19.036;2023-01-28T08:35:11;20.40;51.90
35325;DHT22;35135;47.510;19.036;2023-01-28T08:37:37;20.40;51.90
35325;DHT22;35135;47.510;19.036;2023-01-28T08:40:03;20.40;51.90
35325;DHT22;35135;47.510;19.036;2023-01-28T08:42:28;20.40;51.80
35325;DHT22;35135;47.510;19.036;2023-01-28T08:44:54;20.40;51.90
35325;DHT22;35135;47.510;19.036;2023-01-28T08:47:20;20.30;51.90
35325;DHT22;35135;47.510;19.036;2023-01-28T08:49:45;20.40;51.90
35325;DHT22;35135;47.510;19.036;2023-01-28T08:52:11;20.30;51.80
35325;DHT22;35135;47.510;19.036;2023-01-28T08:54:36;20.40;51.80
35325;DHT22;35135;47.510;19.036;2023-01-28T08:57:02;20.30;51.90
35325;DHT22;35135;47.510;19.036;2023-01-28T08:59:28;20.30;52.00
35325;DHT22;35135;47.510;19.036;2023-01-28T09:01:54;20.30;51.90
35325;DHT22;35135;47.510;19.036;2023-01-28T09:04:19;20.30;51.90
35325;DHT22;35135;47.510;19.036;2023-01-28T09:06:45;20.40;51.90
35325;DHT22;35135;47.510;19.036;2023-01-28T09:09:11;20.30;52.00
35325;DHT22;35135;47.510;19.036;2023-01-28T09:11:36;20.30;52.10
35325;DHT22;35135;47.510;19.036;2023-01-28T09:14:02;20.30;52.40
35325;DHT22;35135;47.510;19.036;2023-01-28T09:16:27;20.30;52.40
35325;DHT22;35135;47.510;19.036;2023-01-28T09:18:53;20.30;52.60
35325;DHT22;35135;47.510;19.036;2023-01-28T09:21:20;20.30;52.40
35325;DHT22;35135;47.510;19.036;2023-01-28T09:23:46;20.40;52.40
35325;DHT22;35135;47.510;19.036;2023-01-28T09:26:12;20.40;52.40
35325;DHT22;35135;47.510;19.036;2023-01-28T09:28:37;20.40;52.40
35325;DHT22;35135;47.510;19.036;2023-01-28T09:31:06;20.40;52.40
35325;DHT22;35135;47.510;19.036;2023-01-28T09:33:33;20.40;52.40
35325;DHT22;35135;47.510;19.036;2023-01-28T09:36:02;20.40;52.40
35325;DHT22;35135;47.510;19.036;2023-01-28T09:38:29;20.40;52.50
35325;DHT22;35135;47.510;19.036;2023-01-28T09:40:55;20.40;52.50
35325;DHT22;35135;47.510;19.036;2023-01-28T09:46:03;20.40;52.70
35325;DHT22;35135;47.510;19.036;2023-01-28T09:48:50;20.40;52.70
35325;DHT22;35135;47.510;19.036;2023-01-28T09:51:41;20.40;52.60
35325;DHT22;35135;47.510;19.036;2023-01-28T09:54:29;20.40;52.60
35325;DHT22;35135;47.510;19.036;2023-01-28T09:57:05;20.40;52.80
35325;DHT22;35135;47.510;19.036;2023-01-28T09:59:34;20.40;52.80
35325;DHT22;35135;47.510;19.036;2023-01-28T10:18:10;20.40;52.80
35325;DHT22;35135;47.510;19.036;2023-01-28T10:20:54;20.40;53.00
35325;DHT22;35135;47.510;19.036;2023-01-28T10:26:40;20.50;52.90
35325;DHT22;35135;47.510;19.036;2023-01-28T10:29:18;20.50;53.00
35325;DHT22;35135;47.510;19.036;2023-01-28T10:34:23;20.50;52.90
35325;DHT22;35135;47.510;19.036;2023-01-28T10:36:49;20.50;52.80
35325;DHT22;35135;47.510;19.036;2023-01-28T10:39:19;20.50;52.90
35325;DHT22;35135;47.510;19.036;2023-01-28T10:41:45;20.50;52.80
35325;DHT22;35135;47.510;19.036;2023-01-28T10:44:31;20.50;52.70
35325;DHT22;35135;47.510;19.036;2023-01-28T10:47:02;20.50;52.70
35325;DHT22;35135;47.510;19.036;2023-01-28T10:49:30;20.50;53.20
35325;DHT22;35135;47.510;19.036;2023-01-28T10:51:56;20.50;52.90
35325;DHT22;35135;47.510;19.036;2023-01-28T10:54:25;20.50;52.80
35325;DHT22;35135;47.510;19.036;2023-01-28T10:56:54;20.50;52.90
35325;DHT22;35135;47.510;19.036;2023-01-28T10:59:27;20.50;53.20
35325;DHT22;35135;47.510;19.036;2023-01-28T11:01:56;20.50;53.00
35325;DHT22;35135;47.510;19.036;2023-01-28T11:04:25;20.50;53.40
35325;DHT22;35135;47.510;19.036;2023-01-28T11:07:06;20.50;53.30
35325;DHT22;35135;47.510;19.036;2023-01-28T11:09:48;20.50;53.40
35325;DHT22;35135;47.510;19.036;2023-01-28T11:12:26;20.50;53.30
35325;DHT22;35135;47.510;19.036;2023-01-28T11:14:54;20.50;53.30
35325;DHT22;35135;47.510;19.036;2023-01-28T11:17:23;20.50;53.40
35325;DHT22;35135;47.510;19.036;2023-01-28T11:19:51;20.50;53.40
35325;DHT22;35135;47.510;19.036;2023-01-28T11:24:49;20.50;53.30
35325;DHT22;35135;47.510;19.036;2023-01-28T11:27:17;20.50;53.10
35325;DHT22;35135;47.510;19.036;2023-01-28T11:29:44;20.50;53.10
35325;DHT22;35135;47.510;19.036;2023-01-28T11:32:20;20.50;53.00
35325;DHT22;35135;47.510;19.036;2023-01-28T11:34:52;20.50;53.00
35325;DHT22;35135;47.510;19.036;2023-01-28T11:37:20;20.50;53.00
35325;DHT22;35135;47.510;19.036;2023-01-28T11:39:47;20.50;52.90
35325;DHT22;35135;47.510;19.036;2023-01-28T11:42:20;20.50;52.90
35325;DHT22;35135;47.510;19.036;2023-01-28T11:44:47;20.50;52.90
35325;DHT22;35135;47.510;19.036;2023-01-28T11:47:40;20.50;53.00
35325;DHT22;35135;47.510;19.036;2023-01-28T11:55:43;20.50;52.70
35325;DHT22;35135;47.510;19.036;2023-01-28T12:00:50;20.50;52.80
35325;DHT22;35135;47.510;19.036;2023-01-28T12:03:40;20.50;52.90
35325;DHT22;35135;47.510;19.036;2023-01-28T12:08:40;20.50;53.00
35325;DHT22;35135;47.510;19.036;2023-01-28T12:11:30;20.50;53.10
35325;DHT22;35135;47.510;19.036;2023-01-28T12:20:06;20.50;53.00
35325;DHT22;35135;47.510;19.036;2023-01-28T12:22:58;20.50;52.90
35325;DHT22;35135;47.510;19.036;2023-01-28T12:28:07;20.50;52.90
35325;DHT22;35135;47.510;19.036;2023-01-28T12:31:03;20.50;52.70
35325;DHT22;35135;47.510;19.036;2023-01-28T12:36:37;20.50;52.70
35325;DHT22;35135;47.510;19.036;2023-01-28T12:42:29;20.40;52.60
35325;DHT22;35135;47.510;19.036;2023-01-28T12:45:02;20.40;52.60
35325;DHT22;35135;47.510;19.036;2023-01-28T12:47:38;20.40;52.50
35325;DHT22;35135;47.510;19.036;2023-01-28T12:50:30;20.40;52.50
35325;DHT22;35135;47.510;19.036;2023-01-28T12:53:02;20.40;52.30
35325;DHT22;35135;47.510;19.036;2023-01-28T12:55:44;20.40;52.30
35325;DHT22;35135;47.510;19.036;2023-01-28T13:01:06;20.30;52.10
35325;DHT22;35135;47.510;19.036;2023-01-28T13:03:52;20.40;52.00
35325;DHT22;35135;47.510;19.036;2023-01-28T13:06:29;20.40;52.00
35325;DHT22;35135;47.510;19.036;2023-01-28T13:09:01;20.30;52.00
35325;DHT22;35135;47.510;19.036;2023-01-28T13:11:33;20.30;51.80
35325;DHT22;35135;47.510;19.036;2023-01-28T13:14:01;20.30;51.80
35325;DHT22;35135;47.510;19.036;2023-01-28T13:16:28;20.30;51.30
35325;DHT22;35135;47.510;19.036;2023-01-28T13:19:07;20.30;51.50
35325;DHT22;35135;47.510;19.036;2023-01-28T13:21:34;20.30;51.50
35325;DHT22;35135;47.510;19.036;2023-01-28T13:26:46;20.30;51.60
35325;DHT22;35135;47.510;19.036;2023-01-28T13:31:52;20.30;51.10
35325;DHT22;35135;47.510;19.036;2023-01-28T13:37:37;20.20;51.20
35325;DHT22;35135;47.510;19.036;2023-01-28T13:42:34;20.30;50.80
35325;DHT22;35135;47.510;19.036;2023-01-28T13:47:54;20.20;50.70
35325;DHT22;35135;47.510;19.036;2023-01-28T13:50:35;20.20;50.30
35325;DHT22;35135;47.510;19.036;2023-01-28T13:55:37;20.20;50.50
35325;DHT22;35135;47.510;19.036;2023-01-28T14:00:49;20.20;50.20
35325;DHT22;35135;47.510;19.036;2023-01-28T14:06:10;20.30;50.50
35325;DHT22;35135;47.510;19.036;2023-01-28T14:08:47;20.30;50.50
35325;DHT22;35135;47.510;19.036;2023-01-28T14:16:44;20.10;47.00
35325;DHT22;35135;47.510;19.036;2023-01-28T14:19:19;20.10;48.00
35325;DHT22;35135;47.510;19.036;2023-01-28T14:21:47;20.00;48.50
35325;DHT22;35135;47.510;19.036;2023-01-28T14:24:16;19.90;48.60
35325;DHT22;35135;47.510;19.036;2023-01-28T14:26:59;19.90;46.40
35325;DHT22;35135;47.510;19.036;2023-01-28T14:32:25;19.70;47.70
35325;DHT22;35135;47.510;19.036;2023-01-28T14:34:53;19.80;48.10
35325;DHT22;35135;47.510;19.036;2023-01-28T14:37:23;19.80;48.10
35325;DHT22;35135;47.510;19.036;2023-01-28T14:39:57;19.70;43.50
35325;DHT22;35135;47.510;19.036;2023-01-28T14:42:26;19.60;42.80
35325;DHT22;35135;47.510;19.036;2023-01-28T14:45:06;19.40;41.60
35325;DHT22;35135;47.510;19.036;2023-01-28T14:47:41;19.10;44.00
35325;DHT22;35135;47.510;19.036;2023-01-28T14:50:29;19.00;45.50
35325;DHT22;35135;47.510;19.036;2023-01-28T14:56:24;18.70;42.10
35325;DHT22;35135;47.510;19.036;2023-01-28T14:58:58;18.60;41.30
35325;DHT22;35135;47.510;19.036;2023-01-28T15:01:28;18.40;41.80
35325;DHT22;35135;47.510;19.036;2023-01-28T15:03:54;18.50;43.30
35325;DHT22;35135;47.510;19.036;2023-01-28T15:06:28;18.60;44.00
35325;DHT22;35135;47.510;19.036;2023-01-28T15:09:08;18.70;44.30
35325;DHT22;35135;47.510;19.036;2023-01-28T15:11:36;18.80;45.60
35325;DHT22;35135;47.510;19.036;2023-01-28T15:14:03;18.90;46.20
35325;DHT22;35135;47.510;19.036;2023-01-28T15:16:29;19.00;46.50
35325;DHT22;35135;47.510;19.036;2023-01-28T15:18:58;19.10;46.90
35325;DHT22;35135;47.510;19.036;2023-01-28T15:21:26;19.20;47.10
35325;DHT22;35135;47.510;19.036;2023-01-28T15:23:58;19.20;47.40
35325;DHT22;35135;47.510;19.036;2023-01-28T15:26:31;19.30;47.80
35325;DHT22;35135;47.510;19.036;2023-01-28T15:28:58;19.40;48.00
35325;DHT22;35135;47.510;19.036;2023-01-28T15:31:30;19.40;48.00
35325;DHT22;35135;47.510;19.036;2023-01-28T15:34:13;19.40;47.80
35325;DHT22;35135;47.510;19.036;2023-01-28T15:36:39;19.40;47.90
35325;DHT22;35135;47.510;19.036;2023-01-28T15:39:16;19.40;46.30
35325;DHT22;35135;47.510;19.036;2023-01-28T15:41:44;19.30;47.40
35325;DHT22;35135;47.510;19.036;2023-01-28T15:44:17;19.30;47.80
35325;DHT22;35135;47.510;19.036;2023-01-28T15:46:43;19.30;48.00
35325;DHT22;35135;47.510;19.036;2023-01-28T15:49:13;19.40;48.30
35325;DHT22;35135;47.510;19.036;2023-01-28T15:51:40;19.50;48.40
35325;DHT22;35135;47.510;19.036;2023-01-28T15:54:08;19.50;48.40
35325;DHT22;35135;47.510;19.036;2023-01-28T15:56:34;19.50;48.50
35325;DHT22;35135;47.510;19.036;2023-01-28T16:01:45;19.50;48.70
35325;DHT22;35135;47.510;19.036;2023-01-28T16:04:28;19.50;49.00
35325;DHT22;35135;47.510;19.036;2023-01-28T16:06:55;19.50;49.10
35325;DHT22;35135;47.510;19.036;2023-01-28T16:09:28;19.60;49.30
35325;DHT22;35135;47.510;19.036;2023-01-28T16:12:16;19.60;49.10
35325;DHT22;35135;47.510;19.036;2023-01-28T16:17:14;19.70;49.50
35325;DHT22;35135;47.510;19.036;2023-01-28T16:19:45;19.70;49.60
35325;DHT22;35135;47.510;19.036;2023-01-28T16:22:20;19.90;49.70
35325;DHT22;35135;47.510;19.036;2023-01-28T16:24:51;20.00;49.60
35325;DHT22;35135;47.510;19.036;2023-01-28T16:27:25;20.10;49.50
35325;DHT22;35135;47.510;19.036;2023-01-28T16:29:51;20.30;49.40
35325;DHT22;35135;47.510;19.036;2023-01-28T16:32:29;20.40;49.10
35325;DHT22;35135;47.510;19.036;2023-01-28T16:34:55;20.60;48.90
35325;DHT22;35135;47.510;19.036;2023-01-28T16:37:21;20.70;48.60
35325;DHT22;35135;47.510;19.036;2023-01-28T16:39:47;20.70;48.40
35325;DHT22;35135;47.510;19.036;2023-01-28T16:42:13;20.70;48.30
35325;DHT22;35135;47.510;19.036;2023-01-28T16:44:39;20.80;48.30
35325;DHT22;35135;47.510;19.036;2023-01-28T16:47:05;20.80;48.30
35325;DHT22;35135;47.510;19.036;2023-01-28T16:49:31;20.80;48.30
35325;DHT22;35135;47.510;19.036;2023-01-28T16:51:57;20.80;48.40
35325;DHT22;35135;47.510;19.036;2023-01-28T16:54:22;20.80;48.40
35325;DHT22;35135;47.510;19.036;2023-01-28T16:56:48;20.80;48.50
35325;DHT22;35135;47.510;19.036;2023-01-28T16:59:15;20.70;48.50
35325;DHT22;35135;47.510;19.036;2023-01-28T17:01:41;20.70;48.50
35325;DHT22;35135;47.510;19.036;2023-01-28T17:04:08;20.70;48.60
35325;DHT22;35135;47.510;19.036;2023-01-28T17:06:34;20.70;48.70
35325;DHT22;35135;47.510;19.036;2023-01-28T17:09:04;20.70;48.90
35325;DHT22;35135;47.510;19.036;2023-01-28T17:11:30;20.60;48.90
35325;DHT22;35135;47.510;19.036;2023-01-28T17:13:56;20.60;48.90
35325;DHT22;35135;47.510;19.036;2023-01-28T17:16:22;20.60;49.00
35325;DHT22;35135;47.510;19.036;2023-01-28T17:18:51;20.60;49.00
35325;DHT22;35135;47.510;19.036;2023-01-28T17:21:17;20.50;49.10
35325;DHT22;35135;47.510;19.036;2023-01-28T17:23:43;20.50;49.40
35325;DHT22;35135;47.510;19.036;2023-01-28T17:26:12;20.50;49.50
35325;DHT22;35135;47.510;19.036;2023-01-28T17:28:38;20.50;49.50
35325;DHT22;35135;47.510;19.036;2023-01-28T17:31:08;20.50;49.50